sensor_id;sensor_type;location;lat;lon;timestamp;P1;durP1;ratioP1;P2;durP2;ratioP2
23181;SDS011;11759;51.282;6.642;2023-05-17T00:00:55;286.58;;;101.63;;
23181;SDS011;11759;51.282;6.642;2023-05-17T00:03:22;277.27;;;103.70;;
23181;SDS011;11759;51.282;6.642;2023-05-17T00:05:49;417.00;;;165.35;;
23181;SDS011;11759;51.282;6.642;2023-05-17T00:08:15;246.88;;;88.35;;
23181;SDS011;11759;51.282;6.642;2023-05-17T00:10:42;309.75;;;143.15;;
23181;SDS011;11759;51.282;6.642;2023-05-17T00:13:09;369.48;;;167.23;;
23181;SDS011;11759;51.282;6.642;2023-05-17T00:15:36;196.77;;;102.10;;
23181;SDS011;11759;51.282;6.642;2023-05-17T00:18:02;444.67;;;214.90;;
23181;SDS011;11759;51.282;6.642;2023-05-17T00:20:30;225.38;;;108.25;;
23181;SDS011;11759;51.282;6.642;2023-05-17T00:22:58;445.10;;;195.65;;
23181;SDS011;11759;51.282;6.642;2023-05-17T00:25:26;223.05;;;102.15;;
23181;SDS011;11759;51.282;6.642;2023-05-17T00:27:53;214.75;;;107.03;;
23181;SDS011;11759;51.282;6.642;2023-05-17T00:30:20;284.73;;;139.30;;
23181;SDS011;11759;51.282;6.642;2023-05-17T00:32:47;344.25;;;152.48;;
23181;SDS011;11759;51.282;6.642;2023-05-17T00:35:13;265.08;;;144.13;;
23181;SDS011;11759;51.282;6.642;2023-05-17T00:37:40;238.30;;;118.80;;
23181;SDS011;11759;51.282;6.642;2023-05-17T00:40:13;245.77;;;115.35;;
23181;SDS011;11759;51.282;6.642;2023-05-17T00:42:41;429.02;;;199.23;;
23181;SDS011;11759;51.282;6.642;2023-05-17T00:45:08;189.05;;;110.57;;
23181;SDS011;11759;51.282;6.642;2023-05-17T00:47:35;228.75;;;114.80;;
23181;SDS011;11759;51.282;6.642;2023-05-17T00:50:02;204.95;;;99.07;;
23181;SDS011;11759;51.282;6.642;2023-05-17T00:52:30;520.40;;;252.10;;
23181;SDS011;11759;51.282;6.642;2023-05-17T00:54:57;165.27;;;94.43;;
23181;SDS011;11759;51.282;6.642;2023-05-17T00:57:24;221.77;;;118.35;;
23181;SDS011;11759;51.282;6.642;2023-05-17T00:59:51;143.35;;;85.80;;
23181;SDS011;11759;51.282;6.642;2023-05-17T01:02:18;217.48;;;107.55;;
23181;SDS011;11759;51.282;6.642;2023-05-17T01:04:45;365.52;;;186.73;;
23181;SDS011;11759;51.282;6.642;2023-05-17T01:07:15;180.47;;;97.93;;
23181;SDS011;11759;51.282;6.642;2023-05-17T01:09:45;90.97;;;66.88;;
23181;SDS011;11759;51.282;6.642;2023-05-17T01:14:57;199.50;;;100.80;;
23181;SDS011;11759;51.282;6.642;2023-05-17T01:20:20;588.28;;;301.00;;
23181;SDS011;11759;51.282;6.642;2023-05-17T01:23:06;354.92;;;166.50;;
23181;SDS011;11759;51.282;6.642;2023-05-17T01:26:09;206.80;;;96.68;;
23181;SDS011;11759;51.282;6.642;2023-05-17T01:28:37;211.82;;;97.82;;
23181;SDS011;11759;51.282;6.642;2023-05-17T01:31:04;197.52;;;112.75;;
23181;SDS011;11759;51.282;6.642;2023-05-17T01:33:31;226.27;;;112.00;;
23181;SDS011;11759;51.282;6.642;2023-05-17T01:35:59;195.63;;;110.35;;
23181;SDS011;11759;51.282;6.642;2023-05-17T01:38:26;214.68;;;106.57;;
23181;SDS011;11759;51.282;6.642;2023-05-17T01:46:36;290.83;;;150.50;;
23181;SDS011;11759;51.282;6.642;2023-05-17T01:49:06;230.80;;;106.50;;
23181;SDS011;11759;51.282;6.642;2023-05-17T01:51:43;160.90;;;73.43;;
23181;SDS011;11759;51.282;6.642;2023-05-17T01:54:37;185.70;;;88.90;;
23181;SDS011;11759;51.282;6.642;2023-05-17T01:57:06;236.75;;;112.30;;
23181;SDS011;11759;51.282;6.642;2023-05-17T01:59:35;195.40;;;99.20;;
23181;SDS011;11759;51.282;6.642;2023-05-17T02:02:03;241.98;;;127.90;;
23181;SDS011;11759;51.282;6.642;2023-05-17T02:04:34;158.25;;;97.90;;
23181;SDS011;11759;51.282;6.642;2023-05-17T02:07:01;148.23;;;87.78;;
23181;SDS011;11759;51.282;6.642;2023-05-17T02:09:29;121.75;;;76.78;;
23181;SDS011;11759;51.282;6.642;2023-05-17T02:11:56;140.07;;;94.85;;
23181;SDS011;11759;51.282;6.642;2023-05-17T02:14:22;250.82;;;137.27;;
23181;SDS011;11759;51.282;6.642;2023-05-17T02:16:49;149.18;;;98.53;;
23181;SDS011;11759;51.282;6.642;2023-05-17T02:19:16;201.10;;;108.55;;
23181;SDS011;11759;51.282;6.642;2023-05-17T02:21:44;92.60;;;60.72;;
23181;SDS011;11759;51.282;6.642;2023-05-17T02:24:10;168.65;;;92.70;;
23181;SDS011;11759;51.282;6.642;2023-05-17T02:26:37;157.43;;;97.60;;
23181;SDS011;11759;51.282;6.642;2023-05-17T02:29:08;173.27;;;102.70;;
23181;SDS011;11759;51.282;6.642;2023-05-17T02:31:36;137.80;;;71.25;;
23181;SDS011;11759;51.282;6.642;2023-05-17T02:34:03;352.40;;;152.32;;
23181;SDS011;11759;51.282;6.642;2023-05-17T02:36:29;184.60;;;89.05;;
23181;SDS011;11759;51.282;6.642;2023-05-17T02:38:56;159.63;;;79.30;;
23181;SDS011;11759;51.282;6.642;2023-05-17T02:41:24;175.73;;;79.97;;
23181;SDS011;11759;51.282;6.642;2023-05-17T02:43:50;187.60;;;86.40;;
23181;SDS011;11759;51.282;6.642;2023-05-17T02:46:17;199.55;;;85.05;;
23181;SDS011;11759;51.282;6.642;2023-05-17T02:48:44;173.98;;;75.57;;
23181;SDS011;11759;51.282;6.642;2023-05-17T02:51:10;231.25;;;90.93;;
23181;SDS011;11759;51.282;6.642;2023-05-17T02:53:37;197.93;;;83.15;;
23181;SDS011;11759;51.282;6.642;2023-05-17T02:56:06;276.25;;;108.93;;
23181;SDS011;11759;51.282;6.642;2023-05-17T02:58:33;238.13;;;92.43;;
23181;SDS011;11759;51.282;6.642;2023-05-17T03:01:00;268.90;;;106.43;;
23181;SDS011;11759;51.282;6.642;2023-05-17T03:03:28;205.80;;;83.47;;
23181;SDS011;11759;51.282;6.642;2023-05-17T03:06:01;240.32;;;93.75;;
23181;SDS011;11759;51.282;6.642;2023-05-17T03:08:28;224.70;;;83.25;;
23181;SDS011;11759;51.282;6.642;2023-05-17T03:10:56;290.55;;;106.43;;
23181;SDS011;11759;51.282;6.642;2023-05-17T03:13:22;239.60;;;87.72;;
23181;SDS011;11759;51.282;6.642;2023-05-17T03:15:49;300.33;;;114.20;;
23181;SDS011;11759;51.282;6.642;2023-05-17T03:18:16;223.07;;;84.38;;
23181;SDS011;11759;51.282;6.642;2023-05-17T03:20:43;249.48;;;96.82;;
23181;SDS011;11759;51.282;6.642;2023-05-17T03:23:10;336.20;;;141.90;;
23181;SDS011;11759;51.282;6.642;2023-05-17T03:25:46;239.52;;;102.78;;
23181;SDS011;11759;51.282;6.642;2023-05-17T03:28:12;166.02;;;80.13;;
23181;SDS011;11759;51.282;6.642;2023-05-17T03:30:39;204.68;;;91.10;;
23181;SDS011;11759;51.282;6.642;2023-05-17T03:33:14;201.10;;;84.05;;
23181;SDS011;11759;51.282;6.642;2023-05-17T03:36:35;178.38;;;82.00;;
23181;SDS011;11759;51.282;6.642;2023-05-17T03:39:56;335.23;;;144.27;;
23181;SDS011;11759;51.282;6.642;2023-05-17T03:43:17;195.85;;;86.45;;
23181;SDS011;11759;51.282;6.642;2023-05-17T03:46:39;211.02;;;89.90;;
23181;SDS011;11759;51.282;6.642;2023-05-17T03:50:00;315.88;;;142.32;;
23181;SDS011;11759;51.282;6.642;2023-05-17T03:53:21;65.45;;;18.38;;
23181;SDS011;11759;51.282;6.642;2023-05-17T03:56:42;64.50;;;21.73;;
23181;SDS011;11759;51.282;6.642;2023-05-17T04:00:03;98.60;;;28.65;;
23181;SDS011;11759;51.282;6.642;2023-05-17T04:03:28;69.82;;;20.40;;
23181;SDS011;11759;51.282;6.642;2023-05-17T04:06:52;183.27;;;45.20;;
23181;SDS011;11759;51.282;6.642;2023-05-17T04:10:13;103.47;;;34.30;;
23181;SDS011;11759;51.282;6.642;2023-05-17T04:13:36;49.88;;;17.77;;
23181;SDS011;11759;51.282;6.642;2023-05-17T04:16:57;64.53;;;19.50;;
23181;SDS011;11759;51.282;6.642;2023-05-17T04:20:19;164.75;;;53.03;;
23181;SDS011;11759;51.282;6.642;2023-05-17T04:23:40;69.45;;;19.35;;
23181;SDS011;11759;51.282;6.642;2023-05-17T04:27:01;80.72;;;23.92;;
23181;SDS011;11759;51.282;6.642;2023-05-17T04:30:22;175.57;;;52.65;;
23181;SDS011;11759;51.282;6.642;2023-05-17T04:33:37;169.00;;;44.40;;
23181;SDS011;11759;51.282;6.642;2023-05-17T04:36:58;65.40;;;20.98;;
23181;SDS011;11759;51.282;6.642;2023-05-17T04:40:22;115.18;;;35.13;;
23181;SDS011;11759;51.282;6.642;2023-05-17T04:43:43;76.28;;;22.42;;
23181;SDS011;11759;51.282;6.642;2023-05-17T04:47:03;78.07;;;22.58;;
23181;SDS011;11759;51.282;6.642;2023-05-17T04:50:24;147.32;;;48.30;;
23181;SDS011;11759;51.282;6.642;2023-05-17T04:53:45;82.85;;;22.98;;
23181;SDS011;11759;51.282;6.642;2023-05-17T04:57:07;76.97;;;22.35;;
23181;SDS011;11759;51.282;6.642;2023-05-17T05:00:31;124.68;;;33.45;;
23181;SDS011;11759;51.282;6.642;2023-05-17T05:03:52;70.57;;;21.58;;
23181;SDS011;11759;51.282;6.642;2023-05-17T05:07:15;71.68;;;21.13;;
23181;SDS011;11759;51.282;6.642;2023-05-17T05:10:29;107.45;;;29.33;;
23181;SDS011;11759;51.282;6.642;2023-05-17T05:13:54;69.88;;;20.52;;
23181;SDS011;11759;51.282;6.642;2023-05-17T05:17:15;71.22;;;20.25;;
23181;SDS011;11759;51.282;6.642;2023-05-17T05:20:36;141.45;;;39.83;;
23181;SDS011;11759;51.282;6.642;2023-05-17T05:23:57;63.55;;;19.17;;
23181;SDS011;11759;51.282;6.642;2023-05-17T05:27:18;72.43;;;20.15;;
23181;SDS011;11759;51.282;6.642;2023-05-17T05:30:39;68.03;;;18.50;;
23181;SDS011;11759;51.282;6.642;2023-05-17T05:34:06;76.18;;;22.70;;
23181;SDS011;11759;51.282;6.642;2023-05-17T05:37:27;81.28;;;21.50;;
23181;SDS011;11759;51.282;6.642;2023-05-17T05:40:48;62.72;;;17.88;;
23181;SDS011;11759;51.282;6.642;2023-05-17T05:47:24;85.07;;;24.50;;
23181;SDS011;11759;51.282;6.642;2023-05-17T05:50:45;64.75;;;18.45;;
23181;SDS011;11759;51.282;6.642;2023-05-17T05:54:06;98.93;;;26.35;;
23181;SDS011;11759;51.282;6.642;2023-05-17T05:57:27;78.53;;;21.88;;
23181;SDS011;11759;51.282;6.642;2023-05-17T06:00:48;70.75;;;19.05;;
23181;SDS011;11759;51.282;6.642;2023-05-17T06:04:12;170.23;;;43.63;;
23181;SDS011;11759;51.282;6.642;2023-05-17T06:07:50;62.63;;;17.52;;
23181;SDS011;11759;51.282;6.642;2023-05-17T06:11:04;182.20;;;45.75;;
23181;SDS011;11759;51.282;6.642;2023-05-17T06:14:25;45.55;;;13.60;;
23181;SDS011;11759;51.282;6.642;2023-05-17T06:17:46;177.73;;;44.05;;
23181;SDS011;11759;51.282;6.642;2023-05-17T06:21:07;64.95;;;17.48;;
23181;SDS011;11759;51.282;6.642;2023-05-17T06:24:29;74.57;;;18.35;;
23181;SDS011;11759;51.282;6.642;2023-05-17T06:27:50;85.00;;;22.37;;
23181;SDS011;11759;51.282;6.642;2023-05-17T06:31:11;87.30;;;21.93;;
23181;SDS011;11759;51.282;6.642;2023-05-17T06:34:27;57.85;;;14.93;;
23181;SDS011;11759;51.282;6.642;2023-05-17T06:37:48;48.75;;;13.27;;
23181;SDS011;11759;51.282;6.642;2023-05-17T06:41:09;176.53;;;43.83;;
23181;SDS011;11759;51.282;6.642;2023-05-17T06:44:30;70.60;;;18.23;;
23181;SDS011;11759;51.282;6.642;2023-05-17T06:47:51;73.47;;;17.10;;
23181;SDS011;11759;51.282;6.642;2023-05-17T06:51:12;199.07;;;50.20;;
23181;SDS011;11759;51.282;6.642;2023-05-17T06:54:33;69.40;;;17.67;;
23181;SDS011;11759;51.282;6.642;2023-05-17T06:57:47;67.78;;;23.50;;
23181;SDS011;11759;51.282;6.642;2023-05-17T07:01:08;281.65;;;73.93;;
23181;SDS011;11759;51.282;6.642;2023-05-17T07:04:29;117.88;;;33.83;;
23181;SDS011;11759;51.282;6.642;2023-05-17T07:07:50;52.70;;;15.23;;
23181;SDS011;11759;51.282;6.642;2023-05-17T07:11:11;78.17;;;19.93;;
23181;SDS011;11759;51.282;6.642;2023-05-17T07:14:32;104.03;;;27.83;;
23181;SDS011;11759;51.282;6.642;2023-05-17T07:17:53;62.20;;;17.65;;
23181;SDS011;11759;51.282;6.642;2023-05-17T07:21:14;121.47;;;34.45;;
23181;SDS011;11759;51.282;6.642;2023-05-17T07:24:36;97.53;;;30.48;;
23181;SDS011;11759;51.282;6.642;2023-05-17T07:27:57;60.50;;;19.02;;
23181;SDS011;11759;51.282;6.642;2023-05-17T07:31:18;187.57;;;47.77;;
23181;SDS011;11759;51.282;6.642;2023-05-17T07:34:39;66.37;;;16.33;;
23181;SDS011;11759;51.282;6.642;2023-05-17T07:38:01;73.40;;;18.63;;
23181;SDS011;11759;51.282;6.642;2023-05-17T07:41:23;190.75;;;49.15;;
23181;SDS011;11759;51.282;6.642;2023-05-17T07:44:44;67.82;;;20.90;;
23181;SDS011;11759;51.282;6.642;2023-05-17T07:48:05;66.30;;;16.43;;
23181;SDS011;11759;51.282;6.642;2023-05-17T07:51:26;277.10;;;71.77;;
23181;SDS011;11759;51.282;6.642;2023-05-17T07:54:47;54.85;;;14.25;;
23181;SDS011;11759;51.282;6.642;2023-05-17T07:58:11;66.40;;;17.30;;
23181;SDS011;11759;51.282;6.642;2023-05-17T08:01:32;119.57;;;30.27;;
23181;SDS011;11759;51.282;6.642;2023-05-17T08:04:53;60.10;;;13.10;;
23181;SDS011;11759;51.282;6.642;2023-05-17T08:08:14;58.25;;;16.58;;
23181;SDS011;11759;51.282;6.642;2023-05-17T08:11:35;95.10;;;23.20;;
23181;SDS011;11759;51.282;6.642;2023-05-17T08:14:58;64.50;;;13.23;;
23181;SDS011;11759;51.282;6.642;2023-05-17T08:18:19;175.70;;;43.77;;
23181;SDS011;11759;51.282;6.642;2023-05-17T08:21:40;122.13;;;29.07;;
23181;SDS011;11759;51.282;6.642;2023-05-17T08:28:30;171.38;;;40.83;;
23181;SDS011;11759;51.282;6.642;2023-05-17T08:31:52;61.47;;;13.45;;
23181;SDS011;11759;51.282;6.642;2023-05-17T08:35:13;108.50;;;30.17;;
23181;SDS011;11759;51.282;6.642;2023-05-17T08:38:35;92.88;;;22.60;;
23181;SDS011;11759;51.282;6.642;2023-05-17T08:41:57;64.28;;;14.00;;
23181;SDS011;11759;51.282;6.642;2023-05-17T08:45:18;111.10;;;36.90;;
23181;SDS011;11759;51.282;6.642;2023-05-17T08:48:39;174.90;;;42.88;;
23181;SDS011;11759;51.282;6.642;2023-05-17T08:52:03;87.00;;;19.75;;
23181;SDS011;11759;51.282;6.642;2023-05-17T08:55:26;126.32;;;40.60;;
23181;SDS011;11759;51.282;6.642;2023-05-17T08:58:51;178.20;;;43.67;;
23181;SDS011;11759;51.282;6.642;2023-05-17T09:02:13;57.88;;;13.10;;
23181;SDS011;11759;51.282;6.642;2023-05-17T09:05:34;57.30;;;13.80;;
23181;SDS011;11759;51.282;6.642;2023-05-17T09:08:56;185.63;;;44.85;;
23181;SDS011;11759;51.282;6.642;2023-05-17T09:12:17;52.70;;;13.47;;
23181;SDS011;11759;51.282;6.642;2023-05-17T09:15:41;94.80;;;24.20;;
23181;SDS011;11759;51.282;6.642;2023-05-17T09:19:04;92.75;;;24.08;;
23181;SDS011;11759;51.282;6.642;2023-05-17T09:22:25;55.00;;;13.77;;
23181;SDS011;11759;51.282;6.642;2023-05-17T09:25:46;59.78;;;15.38;;
23181;SDS011;11759;51.282;6.642;2023-05-17T09:29:08;124.18;;;30.65;;
23181;SDS011;11759;51.282;6.642;2023-05-17T09:32:30;60.83;;;15.13;;
23181;SDS011;11759;51.282;6.642;2023-05-17T09:35:45;56.65;;;14.82;;
23181;SDS011;11759;51.282;6.642;2023-05-17T09:39:06;105.37;;;27.43;;
23181;SDS011;11759;51.282;6.642;2023-05-17T09:42:27;53.87;;;14.23;;
23181;SDS011;11759;51.282;6.642;2023-05-17T09:45:55;65.85;;;17.05;;
23181;SDS011;11759;51.282;6.642;2023-05-17T09:49:17;80.95;;;20.98;;
23181;SDS011;11759;51.282;6.642;2023-05-17T09:52:38;43.53;;;11.50;;
23181;SDS011;11759;51.282;6.642;2023-05-17T09:55:59;69.17;;;17.77;;
23181;SDS011;11759;51.282;6.642;2023-05-17T09:59:21;58.88;;;15.38;;
23181;SDS011;11759;51.282;6.642;2023-05-17T10:02:42;43.93;;;11.67;;
23181;SDS011;11759;51.282;6.642;2023-05-17T10:06:05;75.93;;;20.67;;
23181;SDS011;11759;51.282;6.642;2023-05-17T10:09:48;41.03;;;10.60;;
23181;SDS011;11759;51.282;6.642;2023-05-17T10:13:05;82.10;;;22.15;;
23181;SDS011;11759;51.282;6.642;2023-05-17T10:16:28;108.63;;;26.85;;
23181;SDS011;11759;51.282;6.642;2023-05-17T10:19:49;49.63;;;14.33;;
23181;SDS011;11759;51.282;6.642;2023-05-17T10:23:10;57.70;;;24.07;;
23181;SDS011;11759;51.282;6.642;2023-05-17T10:26:31;208.90;;;61.73;;
23181;SDS011;11759;51.282;6.642;2023-05-17T10:29:52;50.43;;;19.20;;
23181;SDS011;11759;51.282;6.642;2023-05-17T10:33:13;67.10;;;26.80;;
23181;SDS011;11759;51.282;6.642;2023-05-17T10:36:28;97.18;;;33.13;;
23181;SDS011;11759;51.282;6.642;2023-05-17T10:39:49;43.33;;;12.93;;
23181;SDS011;11759;51.282;6.642;2023-05-17T10:43:10;58.10;;;20.87;;
23181;SDS011;11759;51.282;6.642;2023-05-17T10:46:31;91.93;;;27.07;;
23181;SDS011;11759;51.282;6.642;2023-05-17T10:49:52;50.03;;;16.10;;
23181;SDS011;11759;51.282;6.642;2023-05-17T10:53:13;90.60;;;32.90;;
23181;SDS011;11759;51.282;6.642;2023-05-17T10:56:34;178.80;;;51.87;;
23181;SDS011;11759;51.282;6.642;2023-05-17T11:00:00;64.10;;;32.35;;
23181;SDS011;11759;51.282;6.642;2023-05-17T11:03:25;118.68;;;51.80;;
23181;SDS011;11759;51.282;6.642;2023-05-17T11:06:47;49.13;;;22.15;;
23181;SDS011;11759;51.282;6.642;2023-05-17T11:10:12;99.55;;;49.53;;
23181;SDS011;11759;51.282;6.642;2023-05-17T11:13:33;169.47;;;57.97;;
23181;SDS011;11759;51.282;6.642;2023-05-17T11:16:55;61.50;;;33.10;;
23181;SDS011;11759;51.282;6.642;2023-05-17T11:23:46;276.17;;;251.43;;
23181;SDS011;11759;51.282;6.642;2023-05-17T11:27:09;457.35;;;422.08;;
23181;SDS011;11759;51.282;6.642;2023-05-17T11:30:31;743.63;;;647.63;;
23181;SDS011;11759;51.282;6.642;2023-05-17T11:33:52;615.13;;;553.03;;
23181;SDS011;11759;51.282;6.642;2023-05-17T11:37:13;613.87;;;437.73;;
23181;SDS011;11759;51.282;6.642;2023-05-17T11:44:06;556.95;;;331.30;;
23181;SDS011;11759;51.282;6.642;2023-05-17T11:47:27;652.27;;;408.13;;
23181;SDS011;11759;51.282;6.642;2023-05-17T11:50:48;658.53;;;403.83;;
23181;SDS011;11759;51.282;6.642;2023-05-17T11:57:31;631.17;;;343.02;;
23181;SDS011;11759;51.282;6.642;2023-05-17T12:00:53;702.97;;;428.53;;
23181;SDS011;11759;51.282;6.642;2023-05-17T12:04:21;613.88;;;436.17;;
23181;SDS011;11759;51.282;6.642;2023-05-17T12:07:38;651.92;;;419.38;;
23181;SDS011;11759;51.282;6.642;2023-05-17T12:10:05;622.35;;;438.33;;
23181;SDS011;11759;51.282;6.642;2023-05-17T12:12:32;613.45;;;469.17;;
23181;SDS011;11759;51.282;6.642;2023-05-17T12:14:59;775.08;;;581.45;;
23181;SDS011;11759;51.282;6.642;2023-05-17T12:17:30;680.25;;;402.30;;
23181;SDS011;11759;51.282;6.642;2023-05-17T12:20:05;660.58;;;382.20;;
23181;SDS011;11759;51.282;6.642;2023-05-17T12:22:50;633.90;;;311.85;;
23181;SDS011;11759;51.282;6.642;2023-05-17T12:25:20;768.47;;;531.70;;
23181;SDS011;11759;51.282;6.642;2023-05-17T12:27:50;573.73;;;385.80;;
23181;SDS011;11759;51.282;6.642;2023-05-17T12:30:17;705.50;;;510.67;;
23181;SDS011;11759;51.282;6.642;2023-05-17T12:32:44;542.22;;;407.65;;
23181;SDS011;11759;51.282;6.642;2023-05-17T12:35:11;733.13;;;577.63;;
23181;SDS011;11759;51.282;6.642;2023-05-17T12:37:38;580.22;;;519.08;;
23181;SDS011;11759;51.282;6.642;2023-05-17T12:40:06;733.60;;;649.67;;
23181;SDS011;11759;51.282;6.642;2023-05-17T12:42:33;686.05;;;544.63;;
23181;SDS011;11759;51.282;6.642;2023-05-17T12:45:00;694.92;;;615.55;;
23181;SDS011;11759;51.282;6.642;2023-05-17T12:47:30;587.17;;;515.80;;
23181;SDS011;11759;51.282;6.642;2023-05-17T12:49:57;586.20;;;486.08;;
23181;SDS011;11759;51.282;6.642;2023-05-17T12:52:31;559.28;;;450.95;;
23181;SDS011;11759;51.282;6.642;2023-05-17T12:54:58;676.05;;;577.95;;
23181;SDS011;11759;51.282;6.642;2023-05-17T12:57:29;592.60;;;532.33;;
23181;SDS011;11759;51.282;6.642;2023-05-17T12:59:56;569.17;;;510.60;;
23181;SDS011;11759;51.282;6.642;2023-05-17T13:02:22;626.55;;;526.40;;
23181;SDS011;11759;51.282;6.642;2023-05-17T13:04:49;672.97;;;533.50;;
23181;SDS011;11759;51.282;6.642;2023-05-17T13:07:20;560.00;;;466.55;;
23181;SDS011;11759;51.282;6.642;2023-05-17T13:09:49;551.67;;;416.05;;
23181;SDS011;11759;51.282;6.642;2023-05-17T13:12:22;566.15;;;432.75;;
23181;SDS011;11759;51.282;6.642;2023-05-17T13:14:50;664.28;;;494.05;;
23181;SDS011;11759;51.282;6.642;2023-05-17T13:17:18;566.88;;;452.00;;
23181;SDS011;11759;51.282;6.642;2023-05-17T13:19:48;657.65;;;558.38;;
23181;SDS011;11759;51.282;6.642;2023-05-17T13:22:15;573.83;;;514.67;;
23181;SDS011;11759;51.282;6.642;2023-05-17T13:24:45;696.10;;;620.60;;
23181;SDS011;11759;51.282;6.642;2023-05-17T13:27:12;553.22;;;494.73;;
23181;SDS011;11759;51.282;6.642;2023-05-17T13:29:39;543.15;;;485.83;;
23181;SDS011;11759;51.282;6.642;2023-05-17T13:32:08;654.33;;;581.25;;
23181;SDS011;11759;51.282;6.642;2023-05-17T13:34:37;616.67;;;554.05;;
23181;SDS011;11759;51.282;6.642;2023-05-17T13:37:05;672.72;;;603.78;;
23181;SDS011;11759;51.282;6.642;2023-05-17T13:39:38;637.90;;;580.95;;
23181;SDS011;11759;51.282;6.642;2023-05-17T13:42:07;728.35;;;577.90;;
23181;SDS011;11759;51.282;6.642;2023-05-17T13:44:33;648.13;;;476.90;;
23181;SDS011;11759;51.282;6.642;2023-05-17T13:47:01;775.28;;;533.17;;
23181;SDS011;11759;51.282;6.642;2023-05-17T13:49:28;638.90;;;457.88;;
23181;SDS011;11759;51.282;6.642;2023-05-17T13:51:55;611.55;;;504.52;;
23181;SDS011;11759;51.282;6.642;2023-05-17T13:54:23;726.00;;;614.85;;
23181;SDS011;11759;51.282;6.642;2023-05-17T13:56:53;691.85;;;562.47;;
23181;SDS011;11759;51.282;6.642;2023-05-17T13:59:22;606.22;;;537.85;;
23181;SDS011;11759;51.282;6.642;2023-05-17T14:01:49;628.70;;;561.10;;
23181;SDS011;11759;51.282;6.642;2023-05-17T14:04:16;612.88;;;547.92;;
23181;SDS011;11759;51.282;6.642;2023-05-17T14:06:42;582.85;;;516.72;;
23181;SDS011;11759;51.282;6.642;2023-05-17T14:09:11;584.55;;;518.90;;
23181;SDS011;11759;51.282;6.642;2023-05-17T14:11:38;608.25;;;545.50;;
23181;SDS011;11759;51.282;6.642;2023-05-17T14:14:05;656.97;;;597.92;;
23181;SDS011;11759;51.282;6.642;2023-05-17T14:16:32;690.55;;;552.75;;
23181;SDS011;11759;51.282;6.642;2023-05-17T14:18:59;735.80;;;608.17;;
23181;SDS011;11759;51.282;6.642;2023-05-17T14:21:31;706.97;;;613.30;;
23181;SDS011;11759;51.282;6.642;2023-05-17T14:23:57;757.38;;;618.75;;
23181;SDS011;11759;51.282;6.642;2023-05-17T14:26:24;697.08;;;538.25;;
23181;SDS011;11759;51.282;6.642;2023-05-17T14:28:51;771.67;;;519.63;;
23181;SDS011;11759;51.282;6.642;2023-05-17T14:31:18;677.22;;;441.63;;
23181;SDS011;11759;51.282;6.642;2023-05-17T14:33:45;804.05;;;577.05;;
23181;SDS011;11759;51.282;6.642;2023-05-17T14:36:12;701.53;;;541.75;;
23181;SDS011;11759;51.282;6.642;2023-05-17T14:38:39;719.08;;;573.63;;
23181;SDS011;11759;51.282;6.642;2023-05-17T14:41:06;692.08;;;527.90;;
23181;SDS011;11759;51.282;6.642;2023-05-17T14:43:33;698.13;;;524.63;;
23181;SDS011;11759;51.282;6.642;2023-05-17T14:45:59;723.90;;;584.33;;
23181;SDS011;11759;51.282;6.642;2023-05-17T14:48:26;693.22;;;534.75;;
23181;SDS011;11759;51.282;6.642;2023-05-17T14:50:54;685.97;;;462.35;;
23181;SDS011;11759;51.282;6.642;2023-05-17T14:53:20;683.45;;;447.92;;
23181;SDS011;11759;51.282;6.642;2023-05-17T14:55:48;673.95;;;429.95;;
23181;SDS011;11759;51.282;6.642;2023-05-17T14:58:15;691.15;;;402.23;;
23181;SDS011;11759;51.282;6.642;2023-05-17T15:00:41;661.58;;;361.67;;
23181;SDS011;11759;51.282;6.642;2023-05-17T15:03:16;661.28;;;340.77;;
23181;SDS011;11759;51.282;6.642;2023-05-17T15:05:54;658.38;;;358.98;;
23181;SDS011;11759;51.282;6.642;2023-05-17T15:08:21;677.58;;;367.92;;
23181;SDS011;11759;51.282;6.642;2023-05-17T15:10:50;647.55;;;326.67;;
23181;SDS011;11759;51.282;6.642;2023-05-17T15:13:17;673.75;;;362.40;;
23181;SDS011;11759;51.282;6.642;2023-05-17T15:15:44;653.67;;;340.02;;
23181;SDS011;11759;51.282;6.642;2023-05-17T15:18:12;682.58;;;363.48;;
23181;SDS011;11759;51.282;6.642;2023-05-17T15:20:42;742.00;;;397.67;;
23181;SDS011;11759;51.282;6.642;2023-05-17T15:23:09;639.85;;;294.20;;
23181;SDS011;11759;51.282;6.642;2023-05-17T15:25:36;699.55;;;324.50;;
23181;SDS011;11759;51.282;6.642;2023-05-17T15:28:02;633.35;;;267.23;;
23181;SDS011;11759;51.282;6.642;2023-05-17T15:30:29;511.70;;;256.48;;
23181;SDS011;11759;51.282;6.642;2023-05-17T15:32:56;339.50;;;235.00;;
23181;SDS011;11759;51.282;6.642;2023-05-17T15:35:24;603.53;;;334.15;;
23181;SDS011;11759;51.282;6.642;2023-05-17T15:37:51;505.65;;;257.48;;
23181;SDS011;11759;51.282;6.642;2023-05-17T15:40:18;635.80;;;323.83;;
23181;SDS011;11759;51.282;6.642;2023-05-17T15:42:49;501.90;;;240.10;;
23181;SDS011;11759;51.282;6.642;2023-05-17T15:45:18;625.92;;;336.08;;
23181;SDS011;11759;51.282;6.642;2023-05-17T15:47:46;616.38;;;237.77;;
23181;SDS011;11759;51.282;6.642;2023-05-17T15:50:14;586.28;;;271.40;;
23181;SDS011;11759;51.282;6.642;2023-05-17T15:52:41;642.88;;;236.80;;
23181;SDS011;11759;51.282;6.642;2023-05-17T15:55:08;743.40;;;307.58;;
23181;SDS011;11759;51.282;6.642;2023-05-17T15:57:35;708.95;;;264.88;;
23181;SDS011;11759;51.282;6.642;2023-05-17T16:00:06;629.58;;;198.07;;
23181;SDS011;11759;51.282;6.642;2023-05-17T16:02:33;638.83;;;205.35;;
23181;SDS011;11759;51.282;6.642;2023-05-17T16:05:00;643.25;;;234.50;;
23181;SDS011;11759;51.282;6.642;2023-05-17T16:07:29;570.60;;;229.90;;
23181;SDS011;11759;51.282;6.642;2023-05-17T16:09:56;582.65;;;187.82;;
23181;SDS011;11759;51.282;6.642;2023-05-17T16:12:23;599.05;;;214.55;;
23181;SDS011;11759;51.282;6.642;2023-05-17T16:14:50;644.55;;;274.25;;
23181;SDS011;11759;51.282;6.642;2023-05-17T16:17:18;541.05;;;204.50;;
23181;SDS011;11759;51.282;6.642;2023-05-17T16:19:45;655.50;;;301.60;;
23181;SDS011;11759;51.282;6.642;2023-05-17T16:22:14;504.58;;;190.27;;
23181;SDS011;11759;51.282;6.642;2023-05-17T16:24:41;583.97;;;253.13;;
23181;SDS011;11759;51.282;6.642;2023-05-17T16:27:08;481.73;;;185.60;;
23181;SDS011;11759;51.282;6.642;2023-05-17T16:29:35;497.75;;;204.45;;
23181;SDS011;11759;51.282;6.642;2023-05-17T16:32:05;483.23;;;197.55;;
23181;SDS011;11759;51.282;6.642;2023-05-17T16:34:32;477.02;;;216.38;;
23181;SDS011;11759;51.282;6.642;2023-05-17T16:36:59;500.02;;;218.73;;
23181;SDS011;11759;51.282;6.642;2023-05-17T16:39:26;470.58;;;194.85;;
23181;SDS011;11759;51.282;6.642;2023-05-17T16:41:53;609.90;;;296.48;;
23181;SDS011;11759;51.282;6.642;2023-05-17T16:44:20;464.90;;;193.00;;
23181;SDS011;11759;51.282;6.642;2023-05-17T16:46:47;494.17;;;218.30;;
23181;SDS011;11759;51.282;6.642;2023-05-17T16:49:14;454.83;;;189.65;;
23181;SDS011;11759;51.282;6.642;2023-05-17T16:51:40;541.38;;;256.98;;